Portada
METAR-TAF:

METAR-TAF

Aeroports :

Ulan-Udè, Rússia

latitud: 51-50N, longitud: 107-36E, altitud: 510 m

Observació

L'informe es va fer fa 15 minuts, a les 23:30 UTC
Vent calma
Temperatura 7°C
Humitat 53%
Pressió 1025 hPa
Visibilitat 10 km o més

METAR: UIUU 252330Z 00000MPS 9999 NSC 07/M02 Q1025 R26/CLRD60 NOSIG RMK QFE724/0966

Hora: 07:45 (23:45 UTC)

Pronòstic

L'informe es va fer fa 45 minuts, a les 23:00 UTC
Pronòstic vàlid del 26 a les 00 UTC al 26 a les 24 UTC
Vent 12 kt del Oest/Sud-Oest
Visibilitat 10 km o més
Temporalment
l' 26 a les 00 UTC al 26 a les 04 UTC
Vent 2 kt amb direcció variable

TAF: UIUU 252300Z 2600/2624 24006MPS 9999 NSC TEMPO 2600/2604 VRB01MPS

Observacions i pronòstics meteorològics de més de 4000 aeroports (METAR i TAF).

Les estacions disponibles són els punts grocs i vermells al mapa.

Posi el ratolí al punt desitjat per veure el nom de l'estació.

Feu clic per veure les observacions i els pronòstics meteorològics.

Per canviar el mapa: feu clic els botons verds amb una creu de color negre per apropar; al botó verd amb un guió per allunyar la imatge; o en les fletxes verdes per a mapes adjacents.


METAR-TAF: